Time;durP1;ratioP1;P1;durP2;ratioP2;P2;SDS_P1;SDS_P2;PMS_P1;PMS_P2;Temp;Humidity;BMP_temperature;BMP_pressure;BME280_temperature;BME280_humidity;BME280_pressure;Samples;Min_cycle;Max_cycle;Signal;HPM_P1;HPM_P2
2022/03/19 00:01:24;;;;;;;41.27;20.13;;;5.30;99.90;;;;;;10407465;28;20204;-81
2022/03/19 00:06:47;;;;;;;37.07;20.07;;;5.30;99.90;;;;;;10423123;28;20438;-79
2022/03/19 00:12:14;;;;;;;26.47;15.13;;;5.30;99.90;;;;;;10394419;28;20237;-79
2022/03/19 00:17:36;;;;;;;27.73;13.03;;;5.30;99.90;;;;;;10381263;28;20234;-80
2022/03/19 00:22:59;;;;;;;24.00;11.83;;;5.20;99.90;;;;;;10381690;28;20205;-78
2022/03/19 00:28:21;;;;;;;21.67;11.80;;;5.00;99.90;;;;;;10394204;28;20193;-79
2022/03/19 00:33:43;;;;;;;30.17;13.13;;;4.90;99.90;;;;;;10367684;28;20199;-79
2022/03/19 00:39:05;;;;;;;24.10;10.83;;;4.90;99.90;;;;;;10367122;28;20227;-79
2022/03/19 00:44:28;;;;;;;24.77;11.87;;;4.80;99.90;;;;;;10383279;28;20197;-78
2022/03/19 00:49:49;;;;;;;25.53;12.43;;;4.80;99.90;;;;;;10403782;28;20197;-80
2022/03/19 00:55:12;;;;;;;20.30;11.37;;;4.80;99.90;;;;;;10382130;28;20225;-79
2022/03/19 01:00:34;;;;;;;19.17;10.90;;;4.80;99.90;;;;;;10442856;28;20574;-79
2022/03/19 01:05:56;;;;;;;24.33;11.63;;;4.70;99.90;;;;;;10374841;28;20200;-81
2022/03/19 01:11:23;;;;;;;19.40;12.27;;;4.70;99.90;;;;;;10420771;28;20567;-78
2022/03/19 01:16:45;;;;;;;22.30;13.13;;;4.60;99.90;;;;;;10420982;28;20493;-80
2022/03/19 01:22:07;;;;;;;27.90;14.90;;;4.70;99.90;;;;;;10373911;28;20205;-80
2022/03/19 01:27:29;;;;;;;28.67;13.97;;;4.60;99.90;;;;;;10387348;28;20224;-80
2022/03/19 01:32:51;;;;;;;25.00;15.07;;;4.60;99.90;;;;;;10377024;28;20494;-78
2022/03/19 01:38:14;;;;;;;25.80;12.77;;;4.70;99.90;;;;;;10359682;28;20262;-79
2022/03/19 01:43:39;;;;;;;22.23;13.23;;;4.70;99.90;;;;;;10376428;28;20204;-80
2022/03/19 01:49:02;;;;;;;21.50;12.90;;;4.60;99.90;;;;;;10332891;28;20433;-78
2022/03/19 01:54:36;;;;;;;28.83;14.47;;;4.60;99.90;;;;;;10356406;28;20231;-78
2022/03/19 01:59:58;;;;;;;26.80;13.27;;;4.60;99.90;;;;;;10411678;28;20205;-79
2022/03/19 02:05:23;;;;;;;22.87;13.57;;;4.50;99.90;;;;;;10399243;28;20204;-80
2022/03/19 02:10:45;;;;;;;21.40;13.17;;;4.50;99.90;;;;;;10386248;28;20232;-79
2022/03/19 02:16:07;;;;;;;24.83;12.77;;;4.50;99.90;;;;;;10385810;28;20251;-80
2022/03/19 02:21:43;;;;;;;29.37;15.37;;;4.50;99.90;;;;;;10371745;28;20260;-80
2022/03/19 02:27:05;;;;;;;26.77;14.97;;;4.60;99.90;;;;;;10398773;28;20376;-80
2022/03/19 02:32:28;;;;;;;21.80;12.27;;;4.50;99.90;;;;;;10385210;28;20204;-80
2022/03/19 02:37:50;;;;;;;20.00;11.80;;;4.50;99.90;;;;;;10398503;28;20292;-80
2022/03/19 02:43:12;;;;;;;23.17;11.40;;;4.40;99.90;;;;;;10384894;28;20197;-80
2022/03/19 02:48:34;;;;;;;21.30;11.57;;;4.20;99.90;;;;;;10370616;28;20201;-79
2022/03/19 02:53:56;;;;;;;22.77;11.67;;;4.20;99.90;;;;;;10408699;28;20201;-80
2022/03/19 02:59:22;;;;;;;23.03;12.03;;;4.20;99.90;;;;;;10424288;28;20224;-79
2022/03/19 03:04:43;;;;;;;21.97;11.50;;;4.20;99.90;;;;;;10383849;28;20206;-80
2022/03/19 03:10:07;;;;;;;21.83;11.10;;;4.20;99.90;;;;;;10383766;28;20280;-80
2022/03/19 03:15:29;;;;;;;25.77;11.77;;;4.30;99.90;;;;;;10411011;28;20382;-80
2022/03/19 03:20:52;;;;;;;21.27;11.40;;;4.30;99.90;;;;;;10383257;28;20209;-81
2022/03/19 03:26:14;;;;;;;20.70;11.20;;;4.20;99.90;;;;;;10396736;28;20227;-80
2022/03/19 03:31:37;;;;;;;21.13;12.00;;;4.20;99.90;;;;;;10396516;28;20250;-80
2022/03/19 03:36:59;;;;;;;22.93;11.93;;;4.20;99.90;;;;;;10368982;28;20254;-80
2022/03/19 03:42:21;;;;;;;25.90;14.47;;;4.20;99.90;;;;;;10382408;28;20193;-80
2022/03/19 03:47:43;;;;;;;22.90;11.97;;;4.30;99.90;;;;;;10381852;28;20492;-80
2022/03/19 03:53:06;;;;;;;26.37;12.03;;;4.30;99.90;;;;;;10365540;28;20204;-80
2022/03/19 03:58:28;;;;;;;23.63;12.13;;;4.30;99.90;;;;;;10386937;28;20539;-80
2022/03/19 04:03:50;;;;;;;27.77;13.43;;;4.30;99.90;;;;;;10381478;28;20217;-80
2022/03/19 04:09:12;;;;;;;50.23;24.80;;;4.40;99.90;;;;;;10381468;28;20244;-80
2022/03/19 04:14:34;;;;;;;43.70;20.53;;;4.40;99.90;;;;;;10414517;28;20547;-80
2022/03/19 04:19:57;;;;;;;33.00;15.87;;;4.30;99.90;;;;;;10367638;28;20247;-80
2022/03/19 04:25:21;;;;;;;24.30;12.93;;;4.30;99.90;;;;;;10408424;28;20221;-81
2022/03/19 04:30:43;;;;;;;33.60;19.00;;;4.30;99.90;;;;;;10394816;28;20201;-80
2022/03/19 04:41:46;;;;;;;35.03;19.40;;;4.30;99.90;;;;;;10380784;28;20224;-80
2022/03/19 04:47:08;;;;;;;40.17;20.90;;;4.20;99.90;;;;;;10380580;28;20252;-80
2022/03/19 04:52:30;;;;;;;43.67;26.07;;;4.10;99.90;;;;;;10376541;28;20232;-80
2022/03/19 04:57:52;;;;;;;28.97;17.27;;;4.10;99.90;;;;;;10430975;28;20232;-81
2022/03/19 05:03:14;;;;;;;32.87;16.43;;;4.00;99.90;;;;;;10407086;28;20201;-80
2022/03/19 05:08:36;;;;;;;30.73;16.83;;;3.90;99.90;;;;;;10421886;28;20200;-81
2022/03/19 05:13:58;;;;;;;41.67;19.40;;;3.90;99.90;;;;;;10393588;28;20290;-80
2022/03/19 05:19:20;;;;;;;36.33;18.23;;;3.90;99.90;;;;;;10393882;28;20230;-80
2022/03/19 05:24:42;;;;;;;37.70;20.17;;;3.90;99.90;;;;;;10393890;28;20263;-80
2022/03/19 05:30:05;;;;;;;38.03;16.70;;;3.90;99.90;;;;;;10379903;28;20201;-80
2022/03/19 05:35:28;;;;;;;39.33;18.07;;;3.90;99.90;;;;;;10387180;28;20201;-80
2022/03/19 05:40:50;;;;;;;30.90;14.77;;;3.90;99.90;;;;;;10387019;28;20299;-80
2022/03/19 05:46:12;;;;;;;35.33;18.30;;;3.90;99.90;;;;;;10400703;28;20248;-80
2022/03/19 05:51:34;;;;;;;35.10;17.97;;;3.80;99.90;;;;;;10372615;28;20219;-80
2022/03/19 05:56:56;;;;;;;33.40;14.97;;;3.80;99.90;;;;;;10403704;28;20235;-81
2022/03/19 06:02:18;;;;;;;29.20;15.90;;;3.90;99.90;;;;;;10420214;28;20193;-79
2022/03/19 06:07:40;;;;;;;28.03;15.47;;;3.90;99.90;;;;;;10427737;28;20261;-80
2022/03/19 06:13:03;;;;;;;35.83;18.23;;;4.00;99.90;;;;;;10400224;28;20254;-80
2022/03/19 06:18:26;;;;;;;26.83;13.50;;;4.00;99.90;;;;;;10372063;28;20236;-79
2022/03/19 06:23:49;;;;;;;21.83;12.33;;;4.00;99.90;;;;;;10427240;28;20196;-81
2022/03/19 06:29:11;;;;;;;20.50;12.57;;;4.00;99.90;;;;;;10398383;28;20195;-79
2022/03/19 06:34:33;;;;;;;20.47;12.97;;;4.10;99.90;;;;;;10385077;28;20201;-79
2022/03/19 06:39:57;;;;;;;25.67;15.73;;;4.10;99.90;;;;;;10384556;28;20238;-79
2022/03/19 06:45:19;;;;;;;28.97;17.13;;;4.20;99.90;;;;;;10397873;28;20213;-80
2022/03/19 06:50:41;;;;;;;37.47;19.83;;;4.30;99.90;;;;;;10384736;28;20430;-79
2022/03/19 06:56:05;;;;;;;37.53;21.87;;;4.30;99.90;;;;;;10377883;28;20216;-79
2022/03/19 07:01:27;;;;;;;24.27;13.37;;;4.40;99.90;;;;;;10410106;28;20204;-79
2022/03/19 07:06:49;;;;;;;16.70;10.20;;;4.50;99.90;;;;;;10397467;28;20198;-78
2022/03/19 07:12:26;;;;;;;19.87;11.10;;;4.50;99.90;;;;;;10394532;28;20547;-80
2022/03/19 07:17:50;;;;;;;13.53;8.83;;;4.50;99.90;;;;;;10424629;28;20220;-79
2022/03/19 07:23:13;;;;;;;13.33;8.67;;;4.50;99.90;;;;;;10383144;28;20259;-79
2022/03/19 07:28:35;;;;;;;14.40;9.00;;;4.60;99.90;;;;;;10358460;28;20276;-80
2022/03/19 07:33:57;;;;;;;17.87;10.20;;;4.60;99.90;;;;;;10357037;28;20202;-78
2022/03/19 07:39:19;;;;;;;24.00;10.73;;;4.90;99.90;;;;;;10355532;28;20218;-80
2022/03/19 07:44:41;;;;;;;14.20;9.13;;;5.00;99.90;;;;;;10355136;28;20201;-80
2022/03/19 07:50:04;;;;;;;17.77;9.17;;;5.10;99.90;;;;;;10374271;28;20570;-80
2022/03/19 07:55:26;;;;;;;15.03;9.57;;;5.10;99.90;;;;;;10392875;28;20198;-81
2022/03/19 08:00:48;;;;;;;30.63;15.87;;;5.10;99.90;;;;;;10421549;28;20229;-81
2022/03/19 08:06:11;;;;;;;32.63;17.33;;;5.10;99.90;;;;;;10395687;28;20228;-81
2022/03/19 08:11:33;;;;;;;27.83;15.10;;;5.10;99.90;;;;;;10380996;28;20540;-81
2022/03/19 08:16:56;;;;;;;16.97;11.20;;;5.10;99.90;;;;;;10408881;28;20248;-80
2022/03/19 08:22:19;;;;;;;21.00;11.70;;;5.20;99.90;;;;;;10380950;28;20271;-80
2022/03/19 08:27:41;;;;;;;21.40;13.60;;;5.30;99.90;;;;;;10413657;28;20204;-81
2022/03/19 08:33:03;;;;;;;22.80;12.77;;;5.40;99.90;;;;;;10381397;28;20198;-81
2022/03/19 08:44:05;;;;;;;20.00;11.97;;;5.40;99.90;;;;;;10394469;28;20496;-81
2022/03/19 08:49:28;;;;;;;23.83;13.93;;;5.40;99.90;;;;;;10367274;28;20218;-81
2022/03/19 08:54:50;;;;;;;27.10;14.33;;;5.40;99.90;;;;;;10372668;28;20198;-80
2022/03/19 09:00:14;;;;;;;27.20;15.83;;;5.50;99.90;;;;;;10406345;28;20229;-81
2022/03/19 09:05:37;;;;;;;35.97;18.67;;;5.50;99.90;;;;;;10382609;28;20197;-81
2022/03/19 09:10:59;;;;;;;20.27;12.10;;;5.60;99.90;;;;;;10406995;28;20245;-81
2022/03/19 09:16:21;;;;;;;24.17;14.60;;;5.80;99.90;;;;;;10415443;28;20576;-81
2022/03/19 09:21:43;;;;;;;31.60;17.50;;;5.70;99.90;;;;;;10406443;28;20407;-81
2022/03/19 09:27:05;;;;;;;34.80;17.97;;;5.80;99.90;;;;;;10387183;28;20201;-79
2022/03/19 09:32:27;;;;;;;34.67;16.70;;;5.90;99.90;;;;;;10387500;28;20200;-82
2022/03/19 09:37:50;;;;;;;31.17;16.27;;;5.90;99.90;;;;;;10400681;28;20254;-80
2022/03/19 09:43:12;;;;;;;30.27;17.20;;;6.10;99.90;;;;;;10387206;28;20206;-79
2022/03/19 09:48:42;;;;;;;32.53;17.47;;;6.20;99.90;;;;;;10400359;28;20273;-81
2022/03/19 09:54:05;;;;;;;39.40;15.10;;;6.40;99.90;;;;;;10385774;28;20250;-79
2022/03/19 09:59:27;;;;;;;26.37;14.50;;;6.50;99.90;;;;;;10423124;28;20305;-79
2022/03/19 10:04:57;;;;;;;23.67;13.33;;;6.70;99.90;;;;;;10345683;28;20211;-79
2022/03/19 10:10:30;;;;;;;26.60;14.63;;;6.80;99.90;;;;;;10358722;28;20248;-80
2022/03/19 10:15:53;;;;;;;26.30;13.93;;;6.80;99.90;;;;;;10358425;28;20207;-80
2022/03/19 10:21:16;;;;;;;31.37;14.87;;;6.90;99.90;;;;;;10358236;28;20278;-80
2022/03/19 10:26:38;;;;;;;19.70;10.37;;;7.20;99.90;;;;;;10401893;28;20308;-80
2022/03/19 10:32:04;;;;;;;11.73;7.20;;;7.60;99.90;;;;;;10398861;28;20218;-80
2022/03/19 10:37:39;;;;;;;19.70;10.30;;;8.10;99.90;;;;;;10344591;28;20311;-80
2022/03/19 10:43:04;;;;;;;14.17;7.97;;;8.70;99.90;;;;;;10417319;28;20239;-81
2022/03/19 10:48:27;;;;;;;14.17;7.93;;;8.60;99.90;;;;;;10397887;28;20241;-79
2022/03/19 10:53:49;;;;;;;17.40;9.20;;;8.20;99.90;;;;;;10390704;28;20416;-81
2022/03/19 10:59:12;;;;;;;14.43;8.20;;;8.40;99.90;;;;;;10421143;28;20305;-80
2022/03/19 11:04:35;;;;;;;20.23;10.20;;;8.30;99.90;;;;;;10385240;28;20199;-82
2022/03/19 11:09:58;;;;;;;15.23;8.90;;;8.20;99.90;;;;;;10397324;28;20596;-82
2022/03/19 11:15:20;;;;;;;22.73;11.17;;;8.30;99.90;;;;;;10396716;28;20199;-79
2022/03/19 11:20:43;;;;;;;17.50;9.80;;;8.30;99.90;;;;;;10410626;28;20246;-79
2022/03/19 11:26:10;;;;;;;20.23;9.80;;;8.20;99.90;;;;;;10410528;28;20191;-82
2022/03/19 11:31:32;;;;;;;16.87;10.03;;;8.20;99.90;;;;;;10382248;28;20490;-81
2022/03/19 11:37:00;;;;;;;18.33;10.37;;;8.10;99.90;;;;;;10396667;28;20222;-81
2022/03/19 11:42:31;;;;;;;27.07;14.83;;;8.40;99.90;;;;;;10382717;28;20206;-81
2022/03/19 11:47:53;;;;;;;18.47;10.23;;;8.50;99.90;;;;;;10381971;28;20212;-81
2022/03/19 11:53:15;;;;;;;21.57;11.87;;;10.10;99.90;;;;;;10366786;28;20202;-81
2022/03/19 11:58:39;;;;;;;29.27;14.77;;;10.60;99.90;;;;;;10411291;28;20227;-82
2022/03/19 12:04:04;;;;;;;23.37;12.27;;;10.30;99.90;;;;;;10387960;28;20203;-82
2022/03/19 12:09:39;;;;;;;21.03;11.43;;;10.00;99.90;;;;;;10408793;28;20255;-81
2022/03/19 12:15:33;;;;;;;23.77;13.05;;;11.70;99.90;;;;;;10381155;28;20272;-81
2022/03/19 12:20:57;;;;;;;30.02;14.77;;;12.20;99.90;;;;;;10381264;28;20318;-80
2022/03/19 12:26:24;;;;;;;32.85;17.20;;;13.20;99.90;;;;;;10408506;28;20197;-80
2022/03/19 12:31:48;;;;;;;18.83;11.38;;;;;;;;;;10380893;28;20495;-80
2022/03/19 12:37:10;;;;;;;18.58;11.57;;;13.80;93.80;;;;;;10380778;28;20220;-81
2022/03/19 12:42:34;;;;;;;20.98;12.00;;;14.60;92.90;;;;;;10401306;28;20205;-81
2022/03/19 12:47:56;;;;;;;17.60;10.50;;;15.10;85.10;;;;;;10403286;28;20238;-81
2022/03/19 12:53:31;;;;;;;16.02;10.00;;;15.20;69.90;;;;;;10387104;28;20211;-81
2022/03/19 12:58:55;;;;;;;19.17;11.25;;;15.00;72.20;;;;;;10412540;28;20250;-81
2022/03/19 13:04:24;;;;;;;19.95;9.73;;;14.70;78.50;;;;;;10379387;28;20250;-80
2022/03/19 13:09:46;;;;;;;19.65;10.18;;;14.40;83.90;;;;;;10388258;28;20246;-79
2022/03/19 13:15:16;;;;;;;16.63;9.35;;;14.60;84.10;;;;;;10401439;28;20302;-81
2022/03/19 13:20:38;;;;;;;16.38;9.63;;;14.60;81.70;;;;;;10387981;28;20230;-79
2022/03/19 13:26:02;;;;;;;19.10;10.75;;;14.30;84.70;;;;;;10414624;28;20193;-79
2022/03/19 13:31:25;;;;;;;14.82;9.55;;;13.80;90.00;;;;;;10387866;28;20199;-79
2022/03/19 13:36:57;;;;;;;17.30;10.00;;;13.50;90.20;;;;;;10401340;28;20198;-80
2022/03/19 13:42:20;;;;;;;18.60;9.57;;;13.30;85.70;;;;;;10400700;28;20243;-79
2022/03/19 13:47:46;;;;;;;18.00;10.10;;;13.60;82.50;;;;;;10387285;28;20207;-79
2022/03/19 13:53:09;;;;;;;20.17;9.52;;;13.90;72.80;;;;;;10369994;28;20210;-79
2022/03/19 13:58:31;;;;;;;19.90;9.30;;;14.10;62.90;;;;;;10416192;28;20302;-78
2022/03/19 14:03:53;;;;;;;25.20;12.63;;;14.10;59.40;;;;;;10408627;28;20203;-79
2022/03/19 14:09:17;;;;;;;20.98;9.48;;;13.70;61.60;;;;;;10399920;28;20495;-78
2022/03/19 14:14:40;;;;;;;17.25;8.45;;;13.30;64.30;;;;;;10399864;28;20191;-80
2022/03/19 14:20:02;;;;;;;10.50;5.37;;;12.80;68.20;;;;;;10400564;28;20294;-80
2022/03/19 14:25:25;;;;;;;14.77;6.23;;;12.10;68.30;;;;;;10385246;28;20200;-80
2022/03/19 14:30:48;;;;;;;13.43;7.03;;;11.40;72.90;;;;;;10385452;28;20272;-81
2022/03/19 14:36:09;;;;;;;9.77;4.73;;;11.10;77.20;;;;;;10371576;28;20204;-81
2022/03/19 14:41:32;;;;;;;13.10;5.10;;;10.70;77.80;;;;;;10384976;28;20471;-81
2022/03/19 14:46:53;;;;;;;9.43;5.63;;;10.60;81.40;;;;;;10398331;28;20275;-81
2022/03/19 14:52:15;;;;;;;16.93;9.63;;;10.30;82.80;;;;;;10380143;28;20570;-81
2022/03/19 14:57:37;;;;;;;8.77;4.90;;;10.30;85.30;;;;;;10405815;28;20230;-81
2022/03/19 15:02:59;;;;;;;10.53;4.53;;;10.20;87.90;;;;;;10445458;28;20210;-81
2022/03/19 15:08:22;;;;;;;16.80;5.60;;;10.20;90.30;;;;;;10397448;28;20204;-79
2022/03/19 15:13:45;;;;;;;11.73;5.53;;;10.70;88.20;;;;;;10396934;28;20406;-80
2022/03/19 15:19:07;;;;;;;14.47;7.13;;;10.70;85.70;;;;;;10410865;28;20415;-79
2022/03/19 15:24:30;;;;;;;11.17;5.70;;;10.40;88.60;;;;;;10410377;28;20223;-79
2022/03/19 15:29:52;;;;;;;8.73;4.83;;;10.00;90.90;;;;;;10383067;28;20287;-79
2022/03/19 15:35:14;;;;;;;13.07;6.33;;;9.80;91.80;;;;;;10396397;28;20554;-79
2022/03/19 15:40:36;;;;;;;8.83;5.80;;;9.50;93.50;;;;;;10397024;28;20224;-80
2022/03/19 15:45:58;;;;;;;14.50;7.30;;;9.40;95.10;;;;;;10382563;28;20521;-79
2022/03/19 15:51:20;;;;;;;11.23;5.97;;;9.30;96.10;;;;;;10382285;28;20203;-80
2022/03/19 15:56:42;;;;;;;11.43;4.83;;;9.20;96.00;;;;;;10360802;28;20255;-80
2022/03/19 16:02:04;;;;;;;11.17;6.00;;;9.00;95.90;;;;;;10446285;28;20203;-80
2022/03/19 16:07:26;;;;;;;13.83;7.20;;;8.90;97.20;;;;;;10395041;28;20224;-79
2022/03/19 16:12:48;;;;;;;15.00;7.70;;;8.80;97.80;;;;;;10414273;28;20254;-80
2022/03/19 16:18:10;;;;;;;20.37;10.07;;;8.80;98.50;;;;;;10422294;28;20526;-79
2022/03/19 16:23:32;;;;;;;18.17;7.67;;;8.70;99.60;;;;;;10380861;28;20196;-80
2022/03/19 16:28:54;;;;;;;13.47;5.87;;;8.70;99.70;;;;;;10367888;28;20198;-82
2022/03/19 16:34:16;;;;;;;12.40;6.17;;;8.50;99.60;;;;;;10394754;28;20202;-81
2022/03/19 16:39:38;;;;;;;17.30;8.90;;;8.40;99.90;;;;;;10381129;28;20526;-80
2022/03/19 16:45:01;;;;;;;14.30;8.63;;;8.30;99.90;;;;;;10394687;28;20493;-79
2022/03/19 16:50:42;;;;;;;15.80;9.10;;;8.20;99.90;;;;;;10383290;28;20285;-78
2022/03/19 16:56:05;;;;;;;21.53;9.30;;;8.00;99.90;;;;;;10372023;28;20204;-79
2022/03/19 17:01:27;;;;;;;37.90;16.70;;;7.90;99.90;;;;;;10426602;28;20237;-80
2022/03/19 17:06:48;;;;;;;29.57;16.03;;;7.70;99.90;;;;;;10394343;28;20194;-80
2022/03/19 17:12:10;;;;;;;36.20;20.50;;;7.60;99.90;;;;;;10412962;28;20258;-80
2022/03/19 17:17:33;;;;;;;38.10;17.63;;;7.50;99.90;;;;;;10366669;28;20217;-81
2022/03/19 17:22:55;;;;;;;37.60;18.37;;;7.30;99.90;;;;;;10393879;28;20448;-81
2022/03/19 17:28:17;;;;;;;46.73;21.10;;;7.30;99.90;;;;;;10398691;28;20257;-81
2022/03/19 17:33:39;;;;;;;81.77;34.13;;;7.20;99.90;;;;;;10401013;28;20202;-81
2022/03/19 17:39:01;;;;;;;62.20;28.77;;;7.00;99.90;;;;;;10401171;28;20293;-80
2022/03/19 17:44:23;;;;;;;47.17;22.73;;;6.70;99.90;;;;;;10387516;28;20221;-81
2022/03/19 17:49:47;;;;;;;55.20;24.37;;;6.50;99.90;;;;;;10386784;28;20240;-81
2022/03/19 17:55:12;;;;;;;36.13;16.07;;;6.40;99.90;;;;;;10377721;28;20287;-81
2022/03/19 18:00:34;;;;;;;35.00;15.43;;;6.30;99.90;;;;;;10427266;28;20231;-81
2022/03/19 18:05:56;;;;;;;31.70;13.10;;;6.10;99.90;;;;;;10427846;28;20513;-81
2022/03/19 18:11:18;;;;;;;64.27;25.87;;;6.00;99.90;;;;;;10399919;28;20247;-81
2022/03/19 18:16:40;;;;;;;82.00;32.43;;;5.90;99.90;;;;;;10399751;28;20270;-79
2022/03/19 18:22:02;;;;;;;70.97;28.27;;;5.80;99.90;;;;;;10400309;28;20223;-80
2022/03/19 18:27:24;;;;;;;57.30;23.13;;;5.70;99.90;;;;;;10399098;28;20222;-80
2022/03/19 18:32:46;;;;;;;36.67;18.80;;;5.70;99.90;;;;;;10371372;28;20380;-80
2022/03/19 18:38:08;;;;;;;34.27;17.03;;;5.60;99.90;;;;;;10398462;28;20219;-81
2022/03/19 18:43:30;;;;;;;32.27;16.77;;;5.40;99.90;;;;;;10384887;28;20230;-80
2022/03/19 18:48:52;;;;;;;32.47;16.33;;;5.30;99.90;;;;;;10384421;28;20201;-80
2022/03/19 18:54:16;;;;;;;45.53;20.57;;;5.30;99.90;;;;;;10382292;28;20211;-80
2022/03/19 18:59:42;;;;;;;34.50;17.50;;;5.30;99.90;;;;;;10423486;28;20551;-80
2022/03/19 19:05:05;;;;;;;28.77;15.47;;;5.10;99.90;;;;;;10359807;28;20559;-79
2022/03/19 19:10:27;;;;;;;34.37;16.67;;;5.10;99.90;;;;;;10375462;28;20268;-79
2022/03/19 19:15:49;;;;;;;26.57;14.20;;;5.00;99.90;;;;;;10356200;28;20221;-80
2022/03/19 19:21:12;;;;;;;35.50;16.23;;;4.90;99.90;;;;;;10364639;28;20247;-80
2022/03/19 19:26:35;;;;;;;35.47;16.17;;;4.80;99.90;;;;;;10397103;28;20396;-80
2022/03/19 19:31:58;;;;;;;28.43;14.53;;;4.80;99.90;;;;;;10382717;28;20199;-80
2022/03/19 19:37:21;;;;;;;31.00;14.17;;;4.70;99.90;;;;;;10383205;28;20201;-79
2022/03/19 19:42:43;;;;;;;23.37;12.57;;;4.70;99.90;;;;;;10396654;28;20201;-78
2022/03/19 19:48:05;;;;;;;21.77;11.53;;;4.70;99.90;;;;;;10368932;28;20491;-79
2022/03/19 19:53:27;;;;;;;25.57;13.73;;;4.60;99.90;;;;;;10367569;28;20217;-81
2022/03/19 19:58:50;;;;;;;53.07;24.50;;;4.50;99.90;;;;;;10395314;28;20222;-80
2022/03/19 20:04:14;;;;;;;44.93;22.20;;;4.50;99.90;;;;;;10341764;28;20201;-80
2022/03/19 20:09:36;;;;;;;26.87;15.87;;;4.40;99.90;;;;;;10368610;28;20201;-81
2022/03/19 20:14:58;;;;;;;25.10;15.00;;;4.20;99.90;;;;;;10368058;28;20199;-81
2022/03/19 20:20:25;;;;;;;26.93;16.47;;;4.20;99.90;;;;;;10371190;28;20295;-80
2022/03/19 20:26:00;;;;;;;29.37;17.93;;;4.10;99.90;;;;;;10383460;28;20212;-79
2022/03/19 20:31:22;;;;;;;34.07;20.27;;;4.00;99.90;;;;;;10381286;28;20208;-81
2022/03/19 20:36:44;;;;;;;32.90;18.40;;;4.00;99.90;;;;;;10395085;28;20259;-81
2022/03/19 20:42:07;;;;;;;22.57;14.80;;;3.90;99.90;;;;;;10394528;28;20232;-81
2022/03/19 20:47:31;;;;;;;19.80;13.40;;;3.80;99.90;;;;;;10367513;28;20207;-81
2022/03/19 20:52:56;;;;;;;26.40;15.80;;;3.80;99.90;;;;;;10395431;28;20200;-81
2022/03/19 20:58:18;;;;;;;31.57;18.33;;;3.70;99.90;;;;;;10403394;28;20231;-80
2022/03/19 21:03:40;;;;;;;31.67;17.80;;;3.70;99.90;;;;;;10409702;28;20205;-81
2022/03/19 21:09:02;;;;;;;29.97;17.13;;;3.60;99.90;;;;;;10402492;28;20394;-80
2022/03/19 21:14:24;;;;;;;35.83;21.13;;;3.50;99.90;;;;;;10429779;28;20243;-81
2022/03/19 21:19:47;;;;;;;38.07;19.17;;;3.50;99.90;;;;;;10402901;28;20221;-80
2022/03/19 21:25:10;;;;;;;30.63;18.83;;;3.60;99.90;;;;;;10401440;28;20211;-80
2022/03/19 21:30:32;;;;;;;35.53;19.83;;;3.60;99.90;;;;;;10388017;28;20240;-80
2022/03/19 21:35:54;;;;;;;32.97;18.20;;;3.50;99.90;;;;;;10387465;28;20258;-80
2022/03/19 21:41:16;;;;;;;34.80;18.60;;;3.50;99.90;;;;;;10373515;28;20228;-79
2022/03/19 21:46:38;;;;;;;35.27;17.73;;;3.40;99.90;;;;;;10401953;28;20213;-80
2022/03/19 21:52:01;;;;;;;46.20;20.87;;;3.40;99.90;;;;;;10372822;28;20185;-79
2022/03/19 21:57:23;;;;;;;39.30;20.67;;;3.40;99.90;;;;;;10376949;28;20253;-79
2022/03/19 22:02:45;;;;;;;33.13;18.80;;;3.30;99.90;;;;;;10403412;28;20467;-80
2022/03/19 22:08:08;;;;;;;40.33;22.83;;;3.30;99.90;;;;;;10413586;28;20428;-80
2022/03/19 22:13:31;;;;;;;44.67;24.60;;;3.30;99.90;;;;;;10398971;28;20416;-79
2022/03/19 22:18:52;;;;;;;39.27;23.00;;;3.30;99.90;;;;;;10400701;28;20294;-79
2022/03/19 22:24:15;;;;;;;38.87;21.40;;;3.30;99.90;;;;;;10398982;28;20193;-80
2022/03/19 22:29:38;;;;;;;35.33;22.43;;;3.10;99.90;;;;;;10385431;28;20204;-79
2022/03/19 22:35:01;;;;;;;43.83;26.17;;;3.00;99.90;;;;;;10399172;28;20426;-80
2022/03/19 22:40:24;;;;;;;49.47;27.00;;;3.00;99.90;;;;;;10398565;28;20227;-79
2022/03/19 22:45:46;;;;;;;46.87;24.63;;;2.90;99.90;;;;;;10371266;28;20498;-79
2022/03/19 22:51:08;;;;;;;31.87;18.77;;;2.70;99.90;;;;;;10370620;28;20207;-78
2022/03/19 22:56:30;;;;;;;32.00;18.40;;;2.70;99.90;;;;;;10395173;28;20204;-79
2022/03/19 23:01:52;;;;;;;31.93;18.70;;;;;;;;;;10374088;28;20274;-79
2022/03/19 23:07:14;;;;;;;37.80;20.77;;;2.60;99.90;;;;;;10411331;28;20403;-78
2022/03/19 23:12:37;;;;;;;30.57;18.77;;;2.40;99.90;;;;;;10397671;28;20450;-80
2022/03/19 23:17:59;;;;;;;35.73;20.37;;;2.40;99.90;;;;;;10383853;28;20219;-80
2022/03/19 23:23:21;;;;;;;35.33;20.03;;;2.30;99.90;;;;;;10415582;28;20202;-79
2022/03/19 23:28:45;;;;;;;36.53;20.93;;;2.00;99.90;;;;;;10383276;28;20200;-79
2022/03/19 23:34:07;;;;;;;32.70;19.83;;;2.00;99.90;;;;;;10398074;28;20196;-79
2022/03/19 23:39:29;;;;;;;28.37;16.57;;;1.90;99.90;;;;;;10369025;28;20470;-80
2022/03/19 23:44:51;;;;;;;23.70;15.57;;;1.90;99.90;;;;;;10368965;28;20393;-80
2022/03/19 23:50:13;;;;;;;31.23;18.17;;;1.80;99.90;;;;;;10368607;28;20274;-79
2022/03/19 23:55:37;;;;;;;40.07;20.33;;;1.80;99.90;;;;;;10353565;28;20423;-79
